Usk, WA (99180)

2:14 AM PDT on October 02, 2014 (GMT -0700)
RAWS FLOWERY TRAIL WA US | Change Station
CLOSE
Current Station
Personal Weather Station
Location: Usk, WA
Elevation: 2680 ft
Nearby Weather Stations

Elev 2680 ft 48.30 °N, 117.41 °W | Updated 44 minutes ago

Partly Cloudy
Partly Cloudy
35 °F
Feels Like 35 °F
N
0
Wind Variable Wind from North
Gusts 3.0 mph

Today
High -- | Low -- °F
--% Chance of Precip.
Yesterday
High -- | Low -- °F
Precip. -- in
6:50 AM 6:26 PM
First Quarter, 56% visible
Pressure 30.08 in
Visibility 10.0 miles
Clouds Clear
Windchill 35 °F
Dew Point 34 °F
Humidity 96%
Rainfall 0.00 in
Snow Depth Not available.
UV 0 out of 12
Pollen 5.70 out of 12
PM2.5 Good
Flu Activity Not available.
METAR KDEW 020853Z AUTO 04003KT 10SM CLR 03/01 A3006 RMK AO2 SLP185 T00330011 53017

More Conditions Fewer Conditions

Pressure 30.08 in
Visibility 10.0 miles
Clouds Clear
Windchill 35 °F
Dew Point 34 °F
Humidity 96%
Rainfall 0.00 in
Snow Depth Not available.
UV 0 out of 12
Pollen 5.70 out of 12
PM2.5 Good
Flu Activity Not available.
METAR KDEW 020853Z AUTO 04003KT 10SM CLR 03/01 A3006 RMK AO2 SLP185 T00330011 53017

More Conditions Fewer Conditions

10-Day Weather Forecast

Almanac

Astronomy

Oct. 02, 2014 Rise Set
Actual Time 6:50 AM PDT 6:26 PM PDT
Civil Twilight 6:19 AM PDT 6:57 PM PDT
Nautical Twilight 5:42 AM PDT 7:33 PM PDT
Astronomical Twilight 5:05 AM PDT 8:09 PM PDT
Moon 3:00 PM PDT No Moon Set
Length of Visible Light 12h 38m
Length of Day
11h 35m
Tomorrow will be 3m 29s shorter.
First Quarter, 56% of the Moon is Illuminated
Today
First Quarter
Oct 8
Full
Oct 15
Last Quarter
Oct 23
New
Oct 30
First Quarter

Today's Extremes

State Highs State Lows

Community

WunderPhotos

Upload Photos

1,758,202 photos uploaded!

WunderBlogs® & News

By Dr. Jeff Masters
Director of Meteorology, Weather Underground
By Kari Strenfel
Meteorologist, Weather Underground
By Christopher C. Burt
Weather Historian, Weather Underground
October 2, 2014
October 2, 2014
October 2, 2014

Nearby

Air Quality

  Air Quality AQ Index Pollutant
Yesterday Good
OZONE
Yesterday Good
PM10
Current Good
PM2.5
Thursday Good
PM10
Thursday Good
CO

Snow Depth

Station Depth Elevation
Sasse Ridge 0 in 4200 ft
Mount Crag 0 in 4050 ft
Morse Lake 0 in 5400 ft
Park Creek Ridge 0 in 4600 ft
Green Lake 0 in 6000 ft

Earthquake Activity

City Distance Mag. Time & Date
No recent earthquake activity has been reported nearby.
Minimum magnitude displayed is 2.5.

Coastal Water Temperatures

Place Temperature
No Stations Reporting

Nearby Weather Stations